Time;durP1;ratioP1;P1;durP2;ratioP2;P2;SDS_P1;SDS_P2;PMS_P1;PMS_P2;Temp;Humidity;BMP_temperature;BMP_pressure;BME280_temperature;BME280_humidity;BME280_pressure;Samples;Min_cycle;Max_cycle;Signal;HPM_P1;HPM_P2
2022/08/07 00:00:53;;;;;;;0.70;0.28;;;18.30;39.20;;;;;;4960841;28;20059;-47
2022/08/07 00:03:22;;;;;;;1.63;0.55;;;18.30;39.20;;;;;;4964822;28;20135;-44
2022/08/07 00:05:51;;;;;;;1.83;0.57;;;18.20;39.40;;;;;;4964891;28;20051;-46
2022/08/07 00:08:19;;;;;;;0.40;0.30;;;18.20;39.60;;;;;;4963914;28;20717;-48
2022/08/07 00:10:46;;;;;;;1.23;0.47;;;18.20;39.70;;;;;;4961334;28;20054;-45
2022/08/07 00:13:13;;;;;;;0.70;0.20;;;18.10;39.70;;;;;;4963138;28;20043;-43
2022/08/07 00:15:40;;;;;;;0.85;0.35;;;18.10;39.60;;;;;;4962553;28;21493;-45
2022/08/07 00:18:08;;;;;;;0.40;0.40;;;18.10;39.60;;;;;;4964453;28;20063;-45
2022/08/07 00:20:37;;;;;;;1.15;0.30;;;18.10;39.70;;;;;;4961540;28;20120;-45
2022/08/07 00:23:06;;;;;;;0.52;0.30;;;18.10;40.00;;;;;;4963661;28;20047;-44
2022/08/07 00:25:33;;;;;;;0.63;0.30;;;18.00;40.10;;;;;;4962916;28;20047;-45
2022/08/07 00:28:00;;;;;;;0.35;0.28;;;18.00;40.30;;;;;;4963472;28;20050;-48
2022/08/07 00:30:28;;;;;;;0.57;0.30;;;18.00;40.40;;;;;;4962043;28;20059;-45
2022/08/07 00:32:56;;;;;;;2.20;0.40;;;17.90;40.30;;;;;;4965402;28;20059;-44
2022/08/07 00:35:24;;;;;;;1.60;0.40;;;17.90;40.30;;;;;;4964933;28;20066;-44
2022/08/07 00:37:52;;;;;;;0.43;0.20;;;17.90;40.20;;;;;;4962715;28;20058;-43
2022/08/07 00:40:20;;;;;;;0.80;0.43;;;17.90;40.20;;;;;;4962695;28;20052;-47
2022/08/07 00:42:47;;;;;;;1.40;0.30;;;17.80;40.50;;;;;;4962863;28;21700;-45
2022/08/07 00:45:14;;;;;;;3.30;0.40;;;17.80;40.60;;;;;;4960106;28;20055;-43
2022/08/07 00:47:41;;;;;;;0.70;0.40;;;17.80;40.60;;;;;;4962668;28;20403;-46
2022/08/07 00:50:09;;;;;;;1.20;0.57;;;17.70;40.60;;;;;;4961155;28;20054;-46
2022/08/07 00:52:36;;;;;;;0.40;0.20;;;17.70;40.70;;;;;;4964375;28;20070;-46
2022/08/07 00:55:05;;;;;;;1.30;0.43;;;17.70;40.90;;;;;;4964806;28;20059;-47
2022/08/07 00:57:33;;;;;;;0.70;0.40;;;17.60;41.10;;;;;;4962770;28;20054;-48
2022/08/07 01:00:00;;;;;;;1.02;0.40;;;17.60;41.10;;;;;;4962839;28;20054;-44
2022/08/07 01:02:28;;;;;;;0.60;0.40;;;17.60;41.10;;;;;;4962466;28;20388;-46
2022/08/07 01:04:55;;;;;;;1.67;0.50;;;17.50;41.30;;;;;;4963478;28;20062;-44
2022/08/07 01:07:22;;;;;;;2.38;0.47;;;17.50;41.50;;;;;;4960869;28;20050;-48
2022/08/07 01:09:50;;;;;;;0.77;0.47;;;17.50;41.50;;;;;;4961479;28;21258;-43
2022/08/07 01:12:19;;;;;;;0.90;0.45;;;17.50;41.60;;;;;;4964357;28;20058;-46
2022/08/07 01:14:46;;;;;;;1.10;0.40;;;17.40;41.50;;;;;;4963592;28;20457;-47
2022/08/07 01:20:45;;;;;;;2.70;0.40;;;17.30;41.60;;;;;;4958192;28;20042;-46
2022/08/07 01:23:15;;;;;;;0.82;0.57;;;17.30;41.60;;;;;;4963121;28;20422;-43
2022/08/07 01:25:43;;;;;;;1.27;0.45;;;17.30;41.60;;;;;;4964315;28;20054;-47
2022/08/07 01:28:10;;;;;;;0.80;0.50;;;17.20;41.80;;;;;;4960765;28;20101;-48
2022/08/07 01:30:38;;;;;;;1.10;0.50;;;17.20;42.00;;;;;;4959397;28;20069;-44
2022/08/07 01:33:06;;;;;;;0.52;0.30;;;17.20;41.90;;;;;;4962899;28;20062;-43
2022/08/07 01:35:33;;;;;;;0.25;0.20;;;17.20;41.80;;;;;;4964427;28;20426;-46
2022/08/07 01:38:00;;;;;;;0.80;0.30;;;17.20;42.00;;;;;;4956285;28;20054;-44
2022/08/07 01:40:30;;;;;;;0.77;0.38;;;17.10;42.20;;;;;;4958721;28;20054;-46
2022/08/07 01:42:57;;;;;;;1.17;0.40;;;17.10;42.20;;;;;;4960725;28;20062;-45
2022/08/07 01:45:25;;;;;;;0.43;0.32;;;17.10;42.30;;;;;;4961730;28;20649;-45
2022/08/07 01:47:52;;;;;;;0.88;0.30;;;17.10;42.30;;;;;;4957240;28;20042;-46
2022/08/07 01:50:21;;;;;;;0.90;0.52;;;17.10;42.30;;;;;;4958105;28;20062;-47
2022/08/07 01:52:51;;;;;;;0.35;0.30;;;17.00;42.40;;;;;;4960096;28;20051;-44
2022/08/07 01:55:22;;;;;;;1.25;0.50;;;17.00;42.40;;;;;;4959177;28;20063;-47
2022/08/07 01:57:55;;;;;;;2.83;0.20;;;17.00;42.50;;;;;;4960232;28;20051;-47
2022/08/07 02:00:25;;;;;;;0.30;0.30;;;17.00;42.60;;;;;;4963274;28;20050;-43
2022/08/07 02:02:56;;;;;;;0.88;0.38;;;17.00;42.70;;;;;;4961686;28;20545;-45
2022/08/07 02:05:29;;;;;;;1.08;0.43;;;16.90;42.60;;;;;;4963342;28;20055;-44
2022/08/07 02:08:01;;;;;;;0.93;0.55;;;16.90;42.50;;;;;;4963273;28;20534;-45
2022/08/07 02:10:29;;;;;;;1.23;0.50;;;16.90;42.60;;;;;;4963700;28;20073;-46
2022/08/07 02:13:01;;;;;;;0.15;0.10;;;16.90;42.60;;;;;;4963242;28;20965;-44
2022/08/07 02:15:30;;;;;;;0.40;0.40;;;16.80;42.60;;;;;;4940387;28;21661;-43
2022/08/07 02:18:07;;;;;;;1.55;0.30;;;16.80;42.60;;;;;;4964156;28;20506;-43
2022/08/07 02:20:34;;;;;;;1.17;0.30;;;16.80;42.60;;;;;;4931422;28;20058;-42
2022/08/07 02:23:04;;;;;;;2.58;0.40;;;16.80;42.80;;;;;;4963770;28;20078;-46
2022/08/07 02:25:36;;;;;;;1.02;0.50;;;16.70;42.80;;;;;;4962953;28;20054;-44
2022/08/07 02:28:06;;;;;;;1.38;0.40;;;16.70;42.80;;;;;;4963340;28;20057;-44
2022/08/07 02:31:29;;;;;;;1.73;0.45;;;16.70;43.10;;;;;;4962140;28;20911;-44
2022/08/07 02:33:58;;;;;;;0.43;0.32;;;16.70;43.40;;;;;;4963328;28;20065;-46
2022/08/07 02:36:27;;;;;;;0.52;0.38;;;16.70;43.20;;;;;;4964188;28;20061;-43
2022/08/07 02:38:56;;;;;;;0.45;0.20;;;16.70;43.40;;;;;;4963475;28;20070;-43
2022/08/07 02:41:24;;;;;;;0.50;0.40;;;16.70;43.50;;;;;;4960145;28;20061;-48
2022/08/07 02:43:54;;;;;;;0.55;0.40;;;16.60;43.40;;;;;;4961907;28;20055;-48
2022/08/07 02:46:24;;;;;;;1.23;0.60;;;16.60;43.50;;;;;;4961598;28;20508;-47
2022/08/07 02:48:51;;;;;;;0.45;0.22;;;16.60;43.60;;;;;;4962317;28;20053;-47
2022/08/07 02:51:23;;;;;;;0.50;0.32;;;16.60;43.60;;;;;;4963200;28;20059;-43
2022/08/07 02:53:53;;;;;;;1.10;0.60;;;16.50;43.60;;;;;;4963856;28;20071;-46
2022/08/07 02:56:23;;;;;;;0.57;0.28;;;16.50;43.60;;;;;;4967544;28;20059;-44
2022/08/07 02:58:51;;;;;;;1.65;0.60;;;16.50;43.70;;;;;;4965320;28;20058;-45
2022/08/07 03:01:24;;;;;;;0.73;0.38;;;16.50;43.70;;;;;;4966983;28;20059;-46
2022/08/07 03:03:55;;;;;;;0.30;0.30;;;16.40;43.70;;;;;;4967292;28;20061;-45
2022/08/07 03:06:23;;;;;;;0.70;0.40;;;16.40;43.70;;;;;;4966442;28;20058;-45
2022/08/07 03:08:51;;;;;;;0.93;0.40;;;16.30;43.80;;;;;;4965941;28;20057;-44
2022/08/07 03:11:19;;;;;;;0.95;0.38;;;16.30;44.00;;;;;;4966776;28;20087;-43
2022/08/07 03:13:47;;;;;;;2.80;0.50;;;16.30;44.00;;;;;;4964989;28;20058;-45
2022/08/07 03:16:14;;;;;;;1.13;0.50;;;16.20;44.10;;;;;;4966822;28;20058;-45
2022/08/07 03:18:43;;;;;;;6.03;0.38;;;16.20;44.10;;;;;;4967269;28;20406;-45
2022/08/07 03:21:11;;;;;;;1.63;0.40;;;16.20;44.20;;;;;;4966663;28;20494;-45
2022/08/07 03:23:40;;;;;;;2.85;0.40;;;16.20;44.30;;;;;;4965791;28;20070;-44
2022/08/07 03:26:10;;;;;;;0.90;0.63;;;16.20;44.30;;;;;;4966307;28;20058;-44
2022/08/07 03:28:39;;;;;;;0.95;0.32;;;16.10;44.30;;;;;;4965636;28;20055;-47
2022/08/07 03:31:19;;;;;;;0.63;0.40;;;16.10;44.20;;;;;;4965506;28;20062;-44
2022/08/07 03:33:50;;;;;;;0.38;0.30;;;16.10;44.20;;;;;;4964510;28;20059;-47
2022/08/07 03:36:20;;;;;;;2.03;0.52;;;16.00;44.20;;;;;;4962087;28;20058;-45
2022/08/07 03:38:48;;;;;;;0.98;0.40;;;16.00;44.20;;;;;;4965877;28;20055;-43
2022/08/07 03:41:16;;;;;;;0.68;0.50;;;16.00;44.30;;;;;;4961233;28;20057;-44
2022/08/07 03:43:44;;;;;;;1.33;0.47;;;15.90;44.30;;;;;;4964281;28;20054;-47
2022/08/07 03:46:12;;;;;;;0.55;0.50;;;15.90;44.40;;;;;;4964783;28;20058;-46
2022/08/07 03:48:40;;;;;;;1.23;0.60;;;15.90;44.60;;;;;;4962851;28;20073;-45
2022/08/07 03:51:11;;;;;;;1.15;0.60;;;15.90;44.70;;;;;;4961869;28;20047;-46
2022/08/07 03:53:38;;;;;;;0.65;0.47;;;15.90;44.90;;;;;;4965387;28;20054;-44
2022/08/07 03:56:10;;;;;;;0.35;0.32;;;15.80;44.90;;;;;;4965105;28;20419;-44
2022/08/07 03:58:47;;;;;;;;;;;;;;;;;;;;;
2022/08/07 04:01:16;;;;;;;1.10;0.45;;;15.80;45.10;;;;;;4964309;28;20059;-46
2022/08/07 04:03:45;;;;;;;2.03;0.70;;;15.80;45.10;;;;;;4965504;28;20051;-48
2022/08/07 04:06:14;;;;;;;0.88;0.50;;;15.80;45.20;;;;;;4964157;28;20494;-45
2022/08/07 04:08:41;;;;;;;1.45;0.50;;;15.70;45.20;;;;;;4966394;28;20061;-48
2022/08/07 04:11:11;;;;;;;1.25;0.60;;;15.70;45.20;;;;;;4963948;28;20058;-47
2022/08/07 04:13:40;;;;;;;0.88;0.55;;;15.70;45.20;;;;;;4962747;28;20058;-45
2022/08/07 04:16:11;;;;;;;0.63;0.43;;;15.70;45.20;;;;;;4959708;28;20058;-47
2022/08/07 04:18:38;;;;;;;1.55;0.50;;;15.70;45.30;;;;;;4954963;28;20057;-45
2022/08/07 04:21:05;;;;;;;0.77;0.50;;;15.70;45.30;;;;;;4957972;28;20061;-45
2022/08/07 04:23:35;;;;;;;1.20;0.50;;;15.70;45.50;;;;;;4960709;28;20514;-45
2022/08/07 04:26:02;;;;;;;0.70;0.40;;;15.70;45.50;;;;;;4959770;28;20530;-43
2022/08/07 04:28:33;;;;;;;2.53;0.50;;;15.70;46.10;;;;;;4960152;28;20050;-42
2022/08/07 04:31:01;;;;;;;16.98;7.70;;;15.70;45.50;;;;;;4961308;28;20407;-45
2022/08/07 04:33:29;;;;;;;6.60;3.67;;;15.70;45.40;;;;;;4964254;28;20506;-44
2022/08/07 04:35:56;;;;;;;5.25;1.73;;;15.70;45.40;;;;;;4962029;28;20058;-44
2022/08/07 04:38:25;;;;;;;1.73;1.05;;;15.70;45.50;;;;;;4961795;28;20047;-45
2022/08/07 04:40:54;;;;;;;2.05;0.80;;;15.70;45.60;;;;;;4959706;28;20047;-45
2022/08/07 04:43:26;;;;;;;0.70;0.60;;;15.70;45.70;;;;;;4962175;28;20051;-44
2022/08/07 04:46:01;;;;;;;0.65;0.55;;;15.70;45.70;;;;;;4963171;28;20058;-45
2022/08/07 04:48:36;;;;;;;3.05;0.57;;;15.70;45.80;;;;;;4963301;28;20047;-46
2022/08/07 04:51:08;;;;;;;2.65;0.55;;;15.70;45.90;;;;;;4961000;28;20479;-44
2022/08/07 04:53:42;;;;;;;0.38;0.38;;;15.70;46.00;;;;;;4961186;28;20507;-45
2022/08/07 04:56:19;;;;;;;1.02;0.50;;;15.70;46.10;;;;;;4962344;28;20062;-47
2022/08/07 04:58:52;;;;;;;1.52;0.57;;;15.70;46.30;;;;;;4959149;28;20062;-44
2022/08/07 05:01:27;;;;;;;0.70;0.40;;;15.80;46.20;;;;;;4960712;28;20055;-45
2022/08/07 05:04:03;;;;;;;2.85;0.68;;;15.70;46.10;;;;;;4963962;28;20503;-48
2022/08/07 05:06:35;;;;;;;3.20;0.52;;;15.80;46.30;;;;;;4963121;28;20050;-45
2022/08/07 05:09:08;;;;;;;0.95;0.60;;;15.80;46.50;;;;;;4962531;28;20051;-44
2022/08/07 05:11:42;;;;;;;2.25;0.60;;;15.80;46.50;;;;;;4960976;28;20058;-44
2022/08/07 05:14:14;;;;;;;4.25;0.63;;;15.80;46.50;;;;;;4960433;28;20062;-44
2022/08/07 05:16:46;;;;;;;1.02;0.60;;;15.80;46.10;;;;;;4961647;28;20411;-44
2022/08/07 05:19:16;;;;;;;1.02;0.70;;;15.80;46.20;;;;;;4963106;28;20055;-44
2022/08/07 05:21:50;;;;;;;1.95;0.63;;;15.80;46.30;;;;;;4961603;28;20050;-45
2022/08/07 05:24:19;;;;;;;2.00;0.77;;;15.70;46.30;;;;;;4962333;28;20055;-43
2022/08/07 05:26:51;;;;;;;1.58;0.60;;;15.70;46.40;;;;;;4959800;28;20054;-45
2022/08/07 05:29:22;;;;;;;5.72;1.05;;;15.70;46.70;;;;;;4961772;28;20054;-45
2022/08/07 05:31:50;;;;;;;2.47;0.63;;;15.70;47.10;;;;;;4961550;28;20054;-46
2022/08/07 05:34:19;;;;;;;1.25;0.65;;;15.80;47.20;;;;;;4964325;28;20061;-45
2022/08/07 05:36:49;;;;;;;0.73;0.60;;;15.80;47.20;;;;;;4959842;28;20058;-46
2022/08/07 05:39:18;;;;;;;2.13;0.63;;;15.80;47.00;;;;;;4962316;28;20415;-43
2022/08/07 05:41:47;;;;;;;1.10;0.70;;;15.90;47.50;;;;;;4960490;28;20400;-45
2022/08/07 05:44:19;;;;;;;0.68;0.50;;;16.00;48.10;;;;;;4962090;28;20062;-44
2022/08/07 05:46:49;;;;;;;3.17;0.60;;;16.00;48.40;;;;;;4963403;28;20046;-43
2022/08/07 05:49:17;;;;;;;0.88;0.63;;;16.20;48.70;;;;;;4961310;28;20046;-44
2022/08/07 05:51:45;;;;;;;4.30;0.50;;;16.30;49.00;;;;;;4960601;28;20051;-46
2022/08/07 05:54:13;;;;;;;1.20;0.75;;;16.40;49.00;;;;;;4960022;28;20054;-47
2022/08/07 05:56:41;;;;;;;1.17;0.65;;;16.50;49.00;;;;;;4962093;28;20061;-45
2022/08/07 05:59:15;;;;;;;1.33;0.55;;;16.60;49.00;;;;;;4959933;28;20050;-45
2022/08/07 06:01:46;;;;;;;2.60;0.63;;;16.70;49.20;;;;;;4955492;28;20074;-44
2022/08/07 06:04:16;;;;;;;1.75;0.60;;;16.80;49.30;;;;;;4961902;28;20058;-45
2022/08/07 06:06:44;;;;;;;0.65;0.45;;;16.90;49.20;;;;;;4961414;28;20053;-45
2022/08/07 06:09:11;;;;;;;1.95;0.70;;;17.00;49.20;;;;;;4957446;28;20383;-46
2022/08/07 06:11:39;;;;;;;2.58;0.60;;;17.10;49.10;;;;;;4957571;28;20403;-44
2022/08/07 06:14:06;;;;;;;4.00;0.70;;;17.20;49.30;;;;;;4959373;28;20879;-46
2022/08/07 06:16:35;;;;;;;1.65;0.60;;;17.20;49.10;;;;;;4962443;28;20057;-45
2022/08/07 06:19:04;;;;;;;1.05;0.70;;;17.30;49.00;;;;;;4961339;28;20047;-46
2022/08/07 06:21:32;;;;;;;0.50;0.40;;;17.40;49.00;;;;;;4960120;28;20059;-43
2022/08/07 06:23:59;;;;;;;1.67;0.85;;;17.40;49.00;;;;;;4960937;28;20051;-47
2022/08/07 06:26:27;;;;;;;3.53;0.52;;;17.50;48.90;;;;;;4958567;28;20069;-45
2022/08/07 06:28:56;;;;;;;2.67;0.90;;;17.50;48.70;;;;;;4958835;28;20061;-44
2022/08/07 06:31:24;;;;;;;0.93;0.52;;;17.60;48.60;;;;;;4963893;28;20396;-44
2022/08/07 06:33:51;;;;;;;1.67;0.80;;;17.60;47.40;;;;;;4966040;28;20392;-46
2022/08/07 06:36:20;;;;;;;1.48;0.63;;;17.70;46.70;;;;;;4964786;28;20077;-45
2022/08/07 06:38:48;;;;;;;2.30;0.55;;;17.70;46.10;;;;;;4963164;28;20059;-44
2022/08/07 06:41:20;;;;;;;2.28;0.80;;;17.70;45.90;;;;;;4957558;28;20059;-46
2022/08/07 06:43:48;;;;;;;0.90;0.63;;;17.70;45.60;;;;;;4964587;28;20067;-44
2022/08/07 06:46:16;;;;;;;1.00;0.60;;;17.70;45.20;;;;;;4967501;28;20050;-47
2022/08/07 06:48:43;;;;;;;2.88;0.50;;;17.70;44.90;;;;;;4966706;28;20057;-47
2022/08/07 06:51:14;;;;;;;1.83;0.73;;;17.70;44.70;;;;;;4963202;28;20055;-43
2022/08/07 06:53:43;;;;;;;1.80;0.80;;;17.70;44.50;;;;;;4964973;28;20067;-44
2022/08/07 06:56:13;;;;;;;2.63;0.70;;;17.70;44.80;;;;;;4961534;28;20058;-48
2022/08/07 06:58:40;;;;;;;1.30;1.00;;;17.70;45.10;;;;;;4963849;28;20066;-43
2022/08/07 07:01:11;;;;;;;2.50;1.00;;;17.80;45.10;;;;;;4964663;28;20054;-48
2022/08/07 07:03:41;;;;;;;2.88;1.17;;;17.80;45.30;;;;;;4967102;28;20075;-43
2022/08/07 07:06:09;;;;;;;1.48;0.90;;;17.80;45.20;;;;;;4962855;28;20070;-43
2022/08/07 07:08:36;;;;;;;1.45;0.90;;;17.80;45.10;;;;;;4965241;28;20480;-43
2022/08/07 07:11:05;;;;;;;0.70;0.70;;;17.80;45.20;;;;;;4965180;28;21367;-45
2022/08/07 07:13:39;;;;;;;1.55;0.90;;;17.80;45.20;;;;;;4963190;28;20055;-46
2022/08/07 07:16:14;;;;;;;1.48;0.88;;;17.80;45.40;;;;;;4964530;28;20054;-45
2022/08/07 07:18:46;;;;;;;1.55;0.60;;;17.90;45.30;;;;;;4963494;28;20430;-46
2022/08/07 07:21:18;;;;;;;1.88;0.60;;;17.90;44.90;;;;;;4961477;28;20070;-43
2022/08/07 07:23:47;;;;;;;2.38;0.63;;;18.00;45.40;;;;;;4964119;28;20605;-46
2022/08/07 07:26:20;;;;;;;0.80;0.57;;;18.00;45.30;;;;;;4960951;28;20057;-45
2022/08/07 07:28:52;;;;;;;1.13;0.55;;;18.00;45.30;;;;;;4963938;28;20070;-45
2022/08/07 07:31:23;;;;;;;0.55;0.50;;;18.10;45.30;;;;;;4961376;28;20065;-45
2022/08/07 07:33:54;;;;;;;4.53;0.60;;;18.10;45.20;;;;;;4963940;28;20059;-43
2022/08/07 07:36:24;;;;;;;1.23;0.60;;;18.20;45.20;;;;;;4964433;28;20055;-45
2022/08/07 07:38:51;;;;;;;3.75;0.70;;;18.20;45.20;;;;;;4964007;28;20090;-48
2022/08/07 07:41:22;;;;;;;0.80;0.40;;;18.40;45.00;;;;;;4958777;28;20510;-48
2022/08/07 07:43:53;;;;;;;1.85;0.60;;;18.40;45.20;;;;;;4963861;28;20438;-47
2022/08/07 07:46:22;;;;;;;1.30;0.57;;;18.50;45.20;;;;;;4962271;28;20062;-44
2022/08/07 07:48:51;;;;;;;1.33;0.50;;;18.50;44.80;;;;;;4963920;28;20077;-46
2022/08/07 07:51:20;;;;;;;1.27;0.60;;;18.60;45.30;;;;;;4963886;28;20518;-45
2022/08/07 07:53:48;;;;;;;2.60;0.73;;;18.70;45.30;;;;;;4964361;28;20059;-44
2022/08/07 07:56:17;;;;;;;1.55;0.40;;;18.70;44.40;;;;;;4964665;28;20057;-45
2022/08/07 07:58:46;;;;;;;1.30;0.43;;;18.80;44.20;;;;;;4963865;28;20495;-42
2022/08/07 08:01:15;;;;;;;1.75;0.98;;;18.80;44.30;;;;;;4961623;28;20050;-48
2022/08/07 08:03:44;;;;;;;0.82;0.65;;;18.90;44.00;;;;;;4961373;28;20055;-44
2022/08/07 08:06:12;;;;;;;1.92;0.30;;;19.00;43.70;;;;;;4962963;28;20057;-43
2022/08/07 08:08:41;;;;;;;1.13;0.50;;;19.10;43.80;;;;;;4964835;28;20054;-44
2022/08/07 08:11:10;;;;;;;2.05;0.65;;;19.10;43.20;;;;;;4961758;28;20055;-45
2022/08/07 08:13:44;;;;;;;0.68;0.65;;;19.20;43.30;;;;;;4963949;28;20109;-47
2022/08/07 08:16:15;;;;;;;;;;;19.30;43.20;;;;;;4965923;28;20066;-46
2022/08/07 08:18:44;;;;;;;4.00;0.50;;;19.40;43.30;;;;;;4965442;28;19926;-42
2022/08/07 08:29:28;;;;;;;1.88;0.60;;;19.70;42.40;;;;;;4969274;28;20442;-44
2022/08/07 08:31:58;;;;;;;1.42;0.60;;;19.80;42.30;;;;;;4963442;28;20415;-43
2022/08/07 08:34:26;;;;;;;0.93;0.32;;;19.90;42.00;;;;;;4965305;28;20495;-44
2022/08/07 08:36:55;;;;;;;1.00;0.30;;;20.00;42.20;;;;;;4965281;28;20058;-43
2022/08/07 08:39:24;;;;;;;3.58;0.80;;;20.00;42.60;;;;;;4961487;28;20054;-44
2022/08/07 08:41:56;;;;;;;0.43;0.40;;;20.10;42.30;;;;;;4960555;28;20063;-45
2022/08/07 08:44:28;;;;;;;1.25;0.40;;;20.20;41.20;;;;;;4961691;28;20055;-43
2022/08/07 08:47:06;;;;;;;0.73;0.40;;;20.30;41.10;;;;;;4959227;28;20055;-46
2022/08/07 08:50:29;;;;;;;2.53;0.60;;;20.40;40.90;;;;;;4963205;28;20422;-48
2022/08/07 08:53:04;;;;;;;0.88;0.38;;;20.50;41.30;;;;;;4961528;28;20051;-46
2022/08/07 08:55:36;;;;;;;2.30;0.50;;;20.60;40.20;;;;;;4963218;28;20051;-45
2022/08/07 08:58:10;;;;;;;5.05;0.75;;;20.70;39.80;;;;;;4961918;28;20519;-43
2022/08/07 09:00:44;;;;;;;0.70;0.28;;;20.80;39.90;;;;;;4959261;28;20047;-46
2022/08/07 09:03:24;;;;;;;4.20;0.50;;;20.80;40.00;;;;;;4962989;28;20058;-44
2022/08/07 09:05:58;;;;;;;0.90;0.30;;;21.00;39.10;;;;;;4961532;28;20059;-44
2022/08/07 09:08:30;;;;;;;;;;;21.10;38.20;;;;;;4964649;28;20125;-46
2022/08/07 09:11:13;;;;;;;0.75;0.38;;;21.20;39.00;;;;;;4959834;28;19926;-46
2022/08/07 09:13:56;;;;;;;0.95;0.32;;;21.30;38.80;;;;;;4959477;28;20051;-43
2022/08/07 09:16:34;;;;;;;1.13;0.30;;;21.40;38.70;;;;;;4960080;28;20058;-43
2022/08/07 09:19:30;;;;;;;1.90;0.50;;;21.50;38.70;;;;;;4961423;28;20058;-42
2022/08/07 09:22:11;;;;;;;0.93;0.40;;;21.60;38.10;;;;;;4962918;28;20058;-46
2022/08/07 09:24:53;;;;;;;1.80;0.47;;;21.70;37.10;;;;;;4961949;28;20054;-46
2022/08/07 09:27:29;;;;;;;0.73;0.30;;;21.80;36.70;;;;;;4959579;28;20066;-44
2022/08/07 09:30:02;;;;;;;1.48;0.43;;;21.90;37.40;;;;;;4961342;28;20061;-45
2022/08/07 09:32:50;;;;;;;0.75;0.40;;;22.00;37.40;;;;;;4961042;28;20058;-46
2022/08/07 09:35:26;;;;;;;1.20;0.30;;;22.00;35.70;;;;;;4963133;28;20054;-44
2022/08/07 09:37:59;;;;;;;1.08;0.40;;;22.10;35.60;;;;;;4962769;28;20058;-47
2022/08/07 09:40:32;;;;;;;0.73;0.35;;;22.20;35.20;;;;;;4958846;28;20058;-44
2022/08/07 09:43:13;;;;;;;2.35;0.40;;;22.30;35.70;;;;;;4958455;28;20061;-46
2022/08/07 09:45:47;;;;;;;3.65;0.60;;;22.40;35.10;;;;;;4960706;28;20429;-48
2022/08/07 09:48:27;;;;;;;1.33;0.40;;;22.40;34.80;;;;;;4961773;28;20483;-44
2022/08/07 09:51:13;;;;;;;1.15;0.47;;;22.50;35.50;;;;;;4962181;28;20058;-46
2022/08/07 09:53:43;;;;;;;0.50;0.20;;;22.60;35.90;;;;;;4960870;28;20054;-45
2022/08/07 09:56:50;;;;;;;1.00;0.60;;;22.70;35.50;;;;;;4963154;28;20062;-45
2022/08/07 09:59:38;;;;;;;0.50;0.30;;;22.80;34.10;;;;;;4961275;28;20054;-48
2022/08/07 10:02:25;;;;;;;0.82;0.35;;;22.80;34.00;;;;;;4958693;28;20353;-43
2022/08/07 10:05:12;;;;;;;1.88;0.55;;;22.90;33.90;;;;;;4961803;28;20493;-45
2022/08/07 10:07:57;;;;;;;1.48;0.40;;;23.00;33.00;;;;;;4956674;28;20058;-44
2022/08/07 10:10:37;;;;;;;1.80;0.40;;;23.10;33.90;;;;;;4959512;28;20062;-43
2022/08/07 10:13:19;;;;;;;0.98;0.30;;;23.10;34.00;;;;;;4961644;28;20102;-47
2022/08/07 10:16:00;;;;;;;0.32;0.30;;;23.20;33.60;;;;;;4962607;28;20067;-44
2022/08/07 10:19:10;;;;;;;3.03;0.60;;;23.20;34.70;;;;;;4960895;28;20057;-46
2022/08/07 10:21:48;;;;;;;2.40;0.35;;;23.30;34.60;;;;;;4931947;28;20419;-46
2022/08/07 10:24:35;;;;;;;1.20;0.40;;;23.30;33.50;;;;;;4958845;28;20070;-45
2022/08/07 10:27:18;;;;;;;0.95;0.40;;;23.40;33.10;;;;;;4959667;28;20070;-44
2022/08/07 10:30:03;;;;;;;0.82;0.38;;;23.40;33.80;;;;;;4958769;28;20051;-43
2022/08/07 10:32:52;;;;;;;0.95;0.40;;;23.50;33.90;;;;;;4958008;28;20510;-47
2022/08/07 10:35:26;;;;;;;1.00;0.38;;;23.50;34.50;;;;;;4964014;28;20065;-44
2022/08/07 10:38:00;;;;;;;;;;;23.50;34.10;;;;;;4963917;28;20062;-42
2022/08/07 10:40:34;;;;;;;2.60;0.60;;;23.60;34.00;;;;;;4962120;28;19926;-49
2022/08/07 10:43:09;;;;;;;2.10;0.30;;;23.60;33.40;;;;;;4961736;28;20063;-45
2022/08/07 10:45:38;;;;;;;0.35;0.30;;;23.70;32.90;;;;;;4961194;28;20430;-49
2022/08/07 10:48:20;;;;;;;1.80;0.50;;;23.80;33.60;;;;;;4963240;28;20061;-46
2022/08/07 10:50:52;;;;;;;3.72;0.70;;;23.80;32.90;;;;;;4962400;28;20061;-44
2022/08/07 10:53:27;;;;;;;2.83;0.52;;;23.80;32.70;;;;;;4961005;28;20054;-47
2022/08/07 10:56:05;;;;;;;0.65;0.35;;;23.90;32.30;;;;;;4962836;28;20502;-44
2022/08/07 10:58:50;;;;;;;1.35;0.40;;;23.90;33.30;;;;;;4962125;28;20051;-46
2022/08/07 11:01:31;;;;;;;2.42;0.70;;;24.00;32.90;;;;;;4959757;28;20047;-47
2022/08/07 11:04:07;;;;;;;3.25;0.40;;;24.00;33.10;;;;;;4963038;28;20061;-45
2022/08/07 11:06:42;;;;;;;0.85;0.20;;;24.10;32.80;;;;;;4962493;28;20132;-44
2022/08/07 11:09:13;;;;;;;0.90;0.28;;;24.10;33.20;;;;;;4962847;28;20055;-43
2022/08/07 11:11:48;;;;;;;1.77;0.40;;;24.20;32.40;;;;;;4961958;28;20519;-45
2022/08/07 11:14:23;;;;;;;2.17;0.50;;;24.20;31.70;;;;;;4959531;28;20434;-46
2022/08/07 11:16:56;;;;;;;1.85;0.45;;;24.30;31.40;;;;;;4966835;28;20069;-47
2022/08/07 11:19:36;;;;;;;0.77;0.40;;;24.30;31.60;;;;;;4967052;28;20059;-44
2022/08/07 11:22:10;;;;;;;0.95;0.30;;;24.40;32.50;;;;;;4964680;28;20057;-45
2022/08/07 11:24:44;;;;;;;1.02;0.63;;;24.40;31.80;;;;;;4965320;28;20062;-44
2022/08/07 11:27:21;;;;;;;0.50;0.30;;;24.50;32.20;;;;;;4965474;28;20062;-50
2022/08/07 11:29:56;;;;;;;0.43;0.40;;;24.50;31.30;;;;;;4961662;28;20059;-51
2022/08/07 11:32:32;;;;;;;0.93;0.70;;;24.60;31.30;;;;;;4966497;28;20051;-51
2022/08/07 11:35:03;;;;;;;1.73;0.30;;;24.70;30.80;;;;;;4966630;28;20054;-49
2022/08/07 11:37:55;;;;;;;1.45;0.30;;;24.70;30.90;;;;;;4967030;28;20403;-45
2022/08/07 11:40:33;;;;;;;0.90;0.40;;;24.80;30.70;;;;;;4964486;28;20538;-45
2022/08/07 11:43:12;;;;;;;0.98;0.38;;;24.90;30.80;;;;;;4962623;28;20054;-45
2022/08/07 11:45:53;;;;;;;0.77;0.40;;;24.90;31.20;;;;;;4964860;28;20423;-45
2022/08/07 11:48:50;;;;;;;0.77;0.52;;;25.00;31.50;;;;;;4966076;28;20065;-43
2022/08/07 11:51:27;;;;;;;0.95;0.50;;;25.00;31.30;;;;;;4951836;28;20055;-45
2022/08/07 11:54:09;;;;;;;1.15;0.50;;;25.10;31.50;;;;;;4965407;28;20062;-43
2022/08/07 11:56:52;;;;;;;0.80;0.47;;;25.10;31.80;;;;;;4965056;28;20055;-44
2022/08/07 11:59:47;;;;;;;1.13;0.40;;;25.10;31.30;;;;;;4964181;28;20058;-43
2022/08/07 12:02:21;;;;;;;;;;;25.10;31.60;;;;;;4965398;28;20428;-48
2022/08/07 12:05:04;;;;;;;1.45;0.60;;;25.20;31.50;;;;;;4965538;28;19933;-47
2022/08/07 12:07:35;;;;;;;1.25;0.60;;;25.20;30.10;;;;;;4964103;28;20077;-47
2022/08/07 12:10:09;;;;;;;2.80;0.60;;;25.20;31.10;;;;;;4959756;28;20063;-53
2022/08/07 12:12:40;;;;;;;1.20;0.70;;;25.30;30.50;;;;;;4964382;28;20058;-47
2022/08/07 12:15:15;;;;;;;0.98;0.30;;;25.30;30.70;;;;;;4965398;28;20078;-42
2022/08/07 12:17:47;;;;;;;1.92;0.57;;;25.40;31.40;;;;;;4966101;28;20059;-45
2022/08/07 12:20:23;;;;;;;1.60;0.60;;;25.40;29.90;;;;;;4963863;28;20058;-43
2022/08/07 12:23:14;;;;;;;0.30;0.30;;;25.40;30.80;;;;;;4963900;28;20503;-43
2022/08/07 12:25:52;;;;;;;0.82;0.40;;;25.50;30.50;;;;;;4962323;28;20143;-45
2022/08/07 12:28:26;;;;;;;1.17;0.40;;;25.50;30.00;;;;;;4960813;28;20489;-44
2022/08/07 12:30:59;;;;;;;1.38;0.60;;;25.60;30.50;;;;;;4961591;28;20059;-45
2022/08/07 12:33:30;;;;;;;1.25;0.40;;;25.60;29.60;;;;;;4963436;28;20051;-44
2022/08/07 12:35:59;;;;;;;1.23;0.40;;;25.60;29.80;;;;;;4962579;28;20510;-44
2022/08/07 12:38:29;;;;;;;0.60;0.32;;;25.70;30.00;;;;;;4962807;28;20059;-44
2022/08/07 12:40:59;;;;;;;1.00;0.38;;;25.70;29.70;;;;;;4959666;28;20055;-52
2022/08/07 12:43:31;;;;;;;1.65;0.52;;;25.80;29.30;;;;;;4961527;28;20059;-48
2022/08/07 12:46:11;;;;;;;0.55;0.20;;;25.80;29.50;;;;;;4961828;28;20066;-43
2022/08/07 12:48:47;;;;;;;1.38;0.45;;;25.80;29.60;;;;;;4962382;28;20061;-47
2022/08/07 12:51:18;;;;;;;4.30;0.47;;;25.90;30.10;;;;;;4958954;28;20069;-49
2022/08/07 12:53:53;;;;;;;3.20;0.40;;;26.00;29.00;;;;;;4961937;28;20499;-44
2022/08/07 12:56:27;;;;;;;1.20;0.57;;;26.00;29.50;;;;;;4962073;28;20078;-44
2022/08/07 12:58:55;;;;;;;1.77;0.55;;;26.00;29.80;;;;;;4961862;28;20407;-46
2022/08/07 13:01:40;;;;;;;1.02;0.43;;;26.10;30.00;;;;;;4957462;28;20077;-42
2022/08/07 13:04:24;;;;;;;1.08;0.30;;;26.10;30.00;;;;;;4956584;28;20065;-48
2022/08/07 13:07:06;;;;;;;0.55;0.43;;;26.20;29.10;;;;;;4959586;28;20579;-42
2022/08/07 13:09:59;;;;;;;1.70;0.57;;;26.20;29.90;;;;;;4959374;28;20062;-45
2022/08/07 13:12:32;;;;;;;1.58;0.35;;;26.30;30.00;;;;;;4959860;28;20058;-53
2022/08/07 13:15:08;;;;;;;1.70;0.50;;;26.30;28.90;;;;;;4961183;28;20058;-52
2022/08/07 13:17:48;;;;;;;0.80;0.40;;;26.30;28.30;;;;;;4963595;28;20422;-49
2022/08/07 13:20:23;;;;;;;5.07;0.43;;;26.30;28.50;;;;;;4961128;28;20051;-49
2022/08/07 13:22:56;;;;;;;1.58;0.50;;;26.30;28.70;;;;;;4961605;28;20407;-43
2022/08/07 13:25:28;;;;;;;1.95;0.52;;;26.30;29.10;;;;;;4956601;28;20499;-50
2022/08/07 13:28:01;;;;;;;1.25;0.50;;;26.40;28.20;;;;;;4961809;28;20066;-45